Time;durP1;ratioP1;P1;durP2;ratioP2;P2;SDS_P1;SDS_P2;PMS_P1;PMS_P2;Temp;Humidity;BMP_temperature;BMP_pressure;BME280_temperature;BME280_humidity;BME280_pressure;Samples;Min_cycle;Max_cycle;Signal;HPM_P1;HPM_P2
2023/10/27 00:01:25;;;;;;;2.92;2.63;;;;;;;16.56;74.12;99042.72;20967817;28;20490;-72
2023/10/27 00:11:27;;;;;;;3.38;3.03;;;;;;;16.46;74.24;99013.38;20967161;28;20053;-72
2023/10/27 00:21:29;;;;;;;3.20;2.78;;;;;;;16.54;74.00;99021.41;20966199;28;20052;-72
2023/10/27 00:31:30;;;;;;;3.35;2.88;;;;;;;16.54;73.88;99013.34;20965132;28;20045;-72
2023/10/27 00:41:33;;;;;;;2.55;2.35;;;;;;;16.51;73.80;99009.16;20962547;28;20507;-72
2023/10/27 00:51:35;;;;;;;2.80;2.60;;;;;;;16.48;73.76;99006.00;20962211;28;20036;-72
2023/10/27 01:01:37;;;;;;;3.15;2.70;;;;;;;16.47;73.63;98999.78;20961243;28;20593;-72
2023/10/27 01:11:40;;;;;;;3.45;2.80;;;;;;;16.46;73.79;98983.84;20962285;28;20073;-72
2023/10/27 01:21:42;;;;;;;2.90;2.70;;;;;;;16.35;73.76;98980.53;20959529;28;20397;-72
2023/10/27 01:31:44;;;;;;;2.35;2.15;;;;;;;16.44;73.87;99001.97;20960283;28;20048;-72
2023/10/27 01:41:46;;;;;;;2.28;2.08;;;;;;;16.45;73.76;98995.59;20959187;28;20110;-72
2023/10/27 01:51:48;;;;;;;2.50;2.30;;;;;;;16.44;73.82;98993.94;20957735;28;20052;-73
2023/10/27 02:01:49;;;;;;;2.10;1.90;;;;;;;16.44;73.86;98983.19;20958991;28;20865;-72
2023/10/27 02:11:52;;;;;;;2.30;2.10;;;;;;;16.45;73.86;98964.19;20956633;28;20049;-72
2023/10/27 02:21:54;;;;;;;2.08;1.83;;;;;;;16.45;73.96;98966.88;20958047;28;20052;-72
2023/10/27 02:31:56;;;;;;;2.10;1.90;;;;;;;16.44;73.95;98967.06;20955386;28;20048;-72
2023/10/27 02:41:58;;;;;;;2.75;2.30;;;;;;;16.40;74.23;98963.06;20955028;28;20190;-72
2023/10/27 02:51:59;;;;;;;2.75;2.55;;;;;;;16.38;74.18;98968.59;20954909;28;20048;-72
2023/10/27 03:02:02;;;;;;;3.65;2.60;;;;;;;16.35;74.37;98968.94;20959214;28;20486;-72
2023/10/27 03:12:04;;;;;;;3.20;2.55;;;;;;;16.34;74.42;98975.31;20970352;28;20130;-72
2023/10/27 03:22:05;;;;;;;3.10;2.80;;;;;;;16.32;74.55;98970.09;20970775;28;20048;-72
2023/10/27 03:32:08;;;;;;;3.20;2.65;;;;;;;16.31;74.65;98979.19;20969735;28;20063;-73
2023/10/27 03:42:10;;;;;;;3.05;2.45;;;;;;;16.30;74.78;98963.25;20969047;28;20052;-72
2023/10/27 03:52:11;;;;;;;3.35;2.85;;;;;;;16.18;74.61;98944.00;20968587;28;20048;-72
2023/10/27 04:02:15;;;;;;;3.03;2.58;;;;;;;16.30;74.67;98949.81;20967410;28;20048;-72
2023/10/27 04:12:17;;;;;;;3.65;2.53;;;;;;;16.32;74.48;98948.63;20966841;28;20048;-72
2023/10/27 04:22:19;;;;;;;2.65;2.45;;;;;;;16.33;74.55;98939.56;20966344;28;20048;-72
2023/10/27 04:32:21;;;;;;;2.63;2.33;;;;;;;16.35;74.38;98936.72;20965231;28;20049;-72
2023/10/27 04:42:22;;;;;;;2.30;2.10;;;;;;;16.35;74.25;98934.88;20964050;28;20059;-72
2023/10/27 04:52:24;;;;;;;2.40;2.20;;;;;;;16.33;74.23;98933.38;20964011;28;20052;-72
2023/10/27 05:02:26;;;;;;;2.92;2.10;;;;;;;16.35;74.14;98918.78;20961073;28;20519;-72
2023/10/27 05:12:28;;;;;;;2.42;2.22;;;;;;;16.37;74.17;98918.56;20962207;28;20143;-71
2023/10/27 05:22:30;;;;;;;3.05;2.42;;;;;;;16.36;74.11;98911.53;20961860;28;20048;-72
2023/10/27 05:32:33;;;;;;;2.50;2.20;;;;;;;16.26;74.00;98900.19;20959966;28;20049;-72
2023/10/27 05:42:35;;;;;;;2.60;2.30;;;;;;;16.30;73.97;98902.31;20959576;28;20056;-73
2023/10/27 05:52:36;;;;;;;2.95;2.60;;;;;;;16.28;74.35;98898.97;20959382;28;20083;-72
2023/10/27 06:02:38;;;;;;;3.33;2.92;;;;;;;16.28;74.16;98908.88;20958900;28;20049;-72
2023/10/27 06:12:40;;;;;;;3.45;2.88;;;;;;;16.29;74.38;98910.56;20958335;28;20059;-72
2023/10/27 06:22:42;;;;;;;3.08;2.72;;;;;;;16.35;74.16;98913.41;20957619;28;20056;-73
2023/10/27 06:32:44;;;;;;;2.60;2.40;;;;;;;16.37;74.03;98922.13;20957590;28;20098;-73
2023/10/27 06:42:46;;;;;;;3.05;2.53;;;;;;;16.44;74.01;98926.78;20971070;28;20068;-73
2023/10/27 06:52:47;;;;;;;3.15;2.70;;;;;;;16.46;73.82;98924.75;20971542;28;20102;-72
2023/10/27 07:02:49;;;;;;;2.67;2.40;;;;;;;16.52;73.45;98926.75;20972638;28;20106;-72
2023/10/27 07:12:56;;;;;;;2.72;2.53;;;;;;;16.53;73.42;98929.22;20971974;28;20123;-72
2023/10/27 07:22:57;;;;;;;2.80;2.53;;;;;;;16.60;73.24;98933.94;20970705;28;20052;-73
2023/10/27 07:33:00;;;;;;;2.40;2.20;;;;;;;16.65;73.13;98939.59;20970065;28;20504;-72
2023/10/27 07:43:02;;;;;;;2.70;2.50;;;;;;;16.67;73.13;98934.91;20968669;28;20049;-73
2023/10/27 07:53:04;;;;;;;3.05;2.58;;;;;;;16.72;73.05;98937.03;20968084;28;20145;-72
2023/10/27 08:03:06;;;;;;;3.08;2.55;;;;;;;16.76;73.01;98943.72;20967947;28;20044;-72
2023/10/27 08:13:08;;;;;;;2.85;2.55;;;;;;;16.78;73.01;98933.63;20967351;28;20052;-72
2023/10/27 08:23:10;;;;;;;2.33;2.13;;;;;;;16.81;72.86;98936.00;20966288;28;20045;-72
2023/10/27 08:33:12;;;;;;;2.38;2.17;;;;;;;16.84;72.90;98932.94;20965398;28;20048;-72
2023/10/27 08:43:14;;;;;;;2.50;2.20;;;;;;;16.90;72.88;98939.44;20964375;28;20062;-72
2023/10/27 08:53:17;;;;;;;2.42;2.05;;;;;;;16.93;73.00;98939.94;20963846;28;20149;-72
2023/10/27 09:03:19;;;;;;;2.33;2.13;;;;;;;17.00;72.94;98944.63;20961886;28;20060;-72
2023/10/27 09:13:24;;;;;;;2.28;2.08;;;;;;;17.04;72.88;98948.63;20962336;28;20052;-72
2023/10/27 09:23:25;;;;;;;2.42;2.20;;;;;;;17.05;72.68;98953.00;20961253;28;20143;-72
2023/10/27 09:33:27;;;;;;;2.58;2.28;;;;;;;17.06;72.88;98954.66;20960529;28;20394;-72
2023/10/27 09:43:31;;;;;;;3.15;2.78;;;;;;;17.13;72.62;98947.56;20959867;28;20412;-73
2023/10/27 09:53:33;;;;;;;2.53;2.20;;;;;;;17.18;72.54;98944.34;20959064;28;20139;-72
2023/10/27 10:03:40;;;;;;;2.58;2.38;;;;;;;17.20;72.55;98955.75;20958722;28;20053;-72
2023/10/27 10:13:44;;;;;;;2.45;2.13;;;;;;;17.20;72.69;98951.19;20875801;28;20070;-72
2023/10/27 10:23:52;;;;;;;2.55;2.35;;;;;;;17.20;72.71;98951.19;20876480;28;20139;-73
2023/10/27 10:34:08;;;;;;;3.10;2.60;;;;;;;17.17;73.14;98950.72;20874917;28;20460;-72
2023/10/27 10:44:11;;;;;;;2.95;2.65;;;;;;;17.16;73.20;98952.56;20872442;28;20102;-73
2023/10/27 10:54:13;;;;;;;2.70;2.40;;;;;;;17.14;73.33;98943.84;20955802;28;20083;-73
2023/10/27 11:04:15;;;;;;;3.08;2.78;;;;;;;17.13;73.59;98944.03;20956253;28;20051;-72
2023/10/27 11:14:18;;;;;;;2.85;2.58;;;;;;;17.14;73.49;98935.78;20955986;28;20527;-72
2023/10/27 11:24:21;;;;;;;2.55;2.35;;;;;;;17.15;73.71;98942.00;20960697;28;20044;-73
2023/10/27 11:34:26;;;;;;;3.65;3.00;;;;;;;17.14;73.70;98927.72;20969883;28;20596;-73
2023/10/27 11:44:29;;;;;;;3.17;2.88;;;;;;;17.13;73.94;98928.72;20969243;28;20052;-73
2023/10/27 11:54:31;;;;;;;3.10;2.80;;;;;;;17.14;74.02;98929.59;20969095;28;20071;-73
2023/10/27 12:04:32;;;;;;;3.20;2.88;;;;;;;17.14;74.24;98938.47;20967892;28;20083;-72
2023/10/27 12:14:35;;;;;;;3.28;2.85;;;;;;;17.03;74.29;98917.38;20967147;28;20063;-73
2023/10/27 12:24:36;;;;;;;3.15;2.85;;;;;;;17.14;74.21;98938.47;20966587;28;20055;-73
2023/10/27 12:34:38;;;;;;;2.83;2.55;;;;;;;17.15;74.27;98932.09;20965318;28;20459;-73
2023/10/27 12:44:40;;;;;;;3.00;2.70;;;;;;;17.13;74.34;98934.13;20963677;28;20056;-72
2023/10/27 12:54:42;;;;;;;3.28;2.90;;;;;;;17.12;74.55;98937.81;20963851;28;20420;-72
2023/10/27 13:04:44;;;;;;;3.15;2.88;;;;;;;17.13;74.57;98944.88;20963109;28;20125;-72
2023/10/27 13:14:47;;;;;;;2.95;2.65;;;;;;;17.13;74.53;98942.19;20962208;28;20420;-72
2023/10/27 13:24:49;;;;;;;2.90;2.40;;;;;;;17.08;74.55;98944.56;20959549;28;20174;-72
2023/10/27 13:34:50;;;;;;;2.85;2.60;;;;;;;17.03;74.66;98933.53;20961020;28;20044;-72
2023/10/27 13:44:52;;;;;;;2.63;2.42;;;;;;;17.04;74.91;98940.56;20958785;28;20130;-73
2023/10/27 13:54:54;;;;;;;2.65;2.45;;;;;;;17.03;75.09;98949.66;20959272;28;20052;-72
2023/10/27 14:04:56;;;;;;;2.90;2.20;;;;;;;17.01;74.97;98951.69;20958926;28;20045;-72
2023/10/27 14:14:58;;;;;;;2.95;2.60;;;;;;;17.00;75.19;98956.22;20958362;28;20066;-72
2023/10/27 14:25:00;;;;;;;2.05;1.85;;;;;;;16.95;75.52;98959.41;20957862;28;20044;-71
2023/10/27 14:35:03;;;;;;;2.20;1.98;;;;;;;16.95;75.55;98964.78;20957623;28;20087;-71
2023/10/27 14:45:07;;;;;;;2.30;1.90;;;;;;;16.94;75.54;98957.75;20956514;28;20044;-72
2023/10/27 14:55:11;;;;;;;2.35;2.08;;;;;;;16.92;75.75;98959.78;20956863;28;20044;-72
2023/10/27 15:05:13;;;;;;;1.65;1.55;;;;;;;16.91;75.78;98971.53;20970863;28;20054;-72
2023/10/27 15:15:14;;;;;;;2.10;1.90;;;;;;;16.90;75.76;98961.81;20971658;28;20044;-72
2023/10/27 15:25:16;;;;;;;2.00;1.70;;;;;;;16.89;75.84;98970.03;20973013;28;20041;-72
2023/10/27 15:35:18;;;;;;;1.80;1.70;;;;;;;16.88;75.96;98990.72;20970045;28;20067;-72
2023/10/27 15:45:21;;;;;;;1.75;1.60;;;;;;;16.87;75.93;98978.28;20969253;28;20056;-72
2023/10/27 15:55:23;;;;;;;1.67;1.58;;;;;;;16.87;75.98;98988.19;20969017;28;20669;-72
2023/10/27 16:05:25;;;;;;;2.22;1.90;;;;;;;16.87;76.07;98983.66;20967931;28;20056;-72
2023/10/27 16:15:27;;;;;;;1.88;1.52;;;;;;;16.74;76.18;98972.63;20966768;28;20050;-73
2023/10/27 16:25:29;;;;;;;2.22;1.63;;;;;;;16.78;76.11;98990.91;20964848;28;20424;-73
2023/10/27 16:35:34;;;;;;;2.20;2.00;;;;;;;16.82;76.37;99008.38;20965553;28;20074;-72
2023/10/27 16:45:37;;;;;;;1.65;1.50;;;;;;;16.82;76.35;99013.75;20964424;28;20051;-73
2023/10/27 16:55:41;;;;;;;2.22;2.03;;;;;;;16.79;76.32;99019.47;20963965;28;20048;-72
2023/10/27 17:05:43;;;;;;;2.15;1.63;;;;;;;16.82;76.36;99020.97;20959127;28;20052;-72
2023/10/27 17:15:44;;;;;;;2.17;1.98;;;;;;;16.80;76.35;99026.50;20962429;28;20078;-72
2023/10/27 17:25:47;;;;;;;1.67;1.58;;;;;;;16.79;76.30;99037.41;20958912;28;20099;-72
2023/10/27 17:35:48;;;;;;;2.15;1.95;;;;;;;16.77;76.48;99031.38;20960793;28;20049;-73
2023/10/27 17:45:50;;;;;;;2.30;1.80;;;;;;;16.76;76.59;99029.72;20959475;28;20135;-72
2023/10/27 17:55:52;;;;;;;1.65;1.55;;;;;;;16.74;76.50;99037.13;20960621;28;20403;-72
2023/10/27 18:05:55;;;;;;;2.20;1.85;;;;;;;16.72;76.76;99056.13;20958770;28;20049;-72
2023/10/27 18:16:05;;;;;;;1.80;1.70;;;;;;;16.72;76.59;99055.25;20958664;28;20063;-72
2023/10/27 18:26:10;;;;;;;1.73;1.63;;;;;;;16.70;76.59;99066.19;20875487;28;20067;-72
2023/10/27 18:36:14;;;;;;;2.00;1.80;;;;;;;16.71;76.78;99064.34;20891618;28;20049;-72
2023/10/27 18:46:17;;;;;;;2.13;1.70;;;;;;;16.61;76.95;99057.31;20984451;28;20479;-72
2023/10/27 18:56:19;;;;;;;2.25;2.05;;;;;;;16.59;77.01;99062.03;20983349;28;20044;-72
2023/10/27 19:06:21;;;;;;;1.75;1.65;;;;;;;16.54;77.35;99061.72;20984248;28;20416;-73
2023/10/27 19:16:24;;;;;;;1.80;1.70;;;;;;;16.52;77.46;99067.25;20983489;28;20515;-72
2023/10/27 19:26:26;;;;;;;2.40;1.95;;;;;;;16.43;77.61;99062.91;20981568;28;20076;-72
2023/10/27 19:36:29;;;;;;;2.00;1.67;;;;;;;16.52;77.80;99083.34;20983240;28;20551;-73
2023/10/27 19:46:31;;;;;;;1.90;1.75;;;;;;;16.52;77.82;99093.28;20974092;28;20138;-73
2023/10/27 19:56:34;;;;;;;2.72;1.80;;;;;;;16.52;77.62;99093.28;20969097;28;20519;-72
2023/10/27 20:06:36;;;;;;;2.75;2.05;;;;;;;16.48;77.89;99094.63;20968352;28;20501;-72
2023/10/27 20:16:38;;;;;;;2.00;1.80;;;;;;;16.51;77.86;99107.72;20967145;28;20048;-73
2023/10/27 20:26:41;;;;;;;2.83;2.50;;;;;;;16.55;77.74;99105.50;20966403;28;20050;-72
2023/10/27 20:36:42;;;;;;;2.00;1.80;;;;;;;16.58;77.53;99114.06;20965756;28;20060;-72
2023/10/27 20:46:44;;;;;;;2.00;1.80;;;;;;;16.61;77.57;99112.91;20964410;28;20052;-72
2023/10/27 20:56:46;;;;;;;2.17;1.83;;;;;;;16.63;77.39;99113.56;20963938;28;20041;-72
2023/10/27 21:06:48;;;;;;;2.35;1.88;;;;;;;16.62;77.32;99103.84;20963676;28;20119;-73
2023/10/27 21:16:50;;;;;;;1.83;1.65;;;;;;;16.62;77.35;99115.41;20962466;28;20420;-72
2023/10/27 21:26:52;;;;;;;2.58;2.00;;;;;;;16.62;77.33;99120.78;20961256;28;20108;-73
2023/10/27 21:36:53;;;;;;;2.85;2.00;;;;;;;16.62;77.30;99131.53;20960833;28;20102;-72
2023/10/27 21:46:55;;;;;;;1.75;1.65;;;;;;;16.62;77.16;99136.91;20958048;28;20044;-73
2023/10/27 21:56:57;;;;;;;1.63;1.52;;;;;;;16.62;77.14;99141.47;20959346;28;20144;-72
2023/10/27 22:07:00;;;;;;;1.67;1.58;;;;;;;16.61;77.18;99140.59;20958530;28;20455;-72
2023/10/27 22:17:02;;;;;;;2.08;1.70;;;;;;;16.60;77.30;99141.59;20958645;28;20491;-72
2023/10/27 22:27:04;;;;;;;2.00;1.75;;;;;;;16.60;77.33;99138.94;20955815;28;20041;-72
2023/10/27 22:37:06;;;;;;;1.60;1.45;;;;;;;16.61;77.33;99135.22;20957479;28;20044;-72
2023/10/27 22:47:08;;;;;;;1.42;1.33;;;;;;;16.60;77.39;99138.09;20956943;28;20099;-71
2023/10/27 22:57:10;;;;;;;1.95;1.75;;;;;;;16.59;77.31;99142.63;20955007;28;20231;-71
2023/10/27 23:07:11;;;;;;;1.70;1.60;;;;;;;16.59;77.34;99137.25;20957179;28;20588;-72
2023/10/27 23:17:13;;;;;;;1.88;1.65;;;;;;;16.59;77.37;99148.00;20956606;28;20048;-72
2023/10/27 23:27:15;;;;;;;2.20;2.00;;;;;;;16.60;77.35;99151.53;20970955;28;20478;-72
2023/10/27 23:37:17;;;;;;;2.20;1.83;;;;;;;16.59;77.37;99137.25;20970105;28;20052;-73
2023/10/27 23:47:19;;;;;;;2.67;1.98;;;;;;;16.59;77.41;99126.50;20969483;28;20451;-72
2023/10/27 23:57:21;;;;;;;1.98;1.80;;;;;;;16.57;77.55;99128.53;20969326;28;20072;-72
